sensor_id;sensor_type;location;lat;lon;timestamp;P1;durP1;ratioP1;P2;durP2;ratioP2
25419;SDS011;13354;48.174;11.566;2022-12-18T00:00:54;56.05;;;28.10;;
25419;SDS011;13354;48.174;11.566;2022-12-18T00:03:19;54.05;;;28.95;;
25419;SDS011;13354;48.174;11.566;2022-12-18T00:05:48;56.33;;;27.70;;
25419;SDS011;13354;48.174;11.566;2022-12-18T00:08:17;58.67;;;29.23;;
25419;SDS011;13354;48.174;11.566;2022-12-18T00:10:44;60.05;;;29.27;;
25419;SDS011;13354;48.174;11.566;2022-12-18T00:13:10;58.28;;;28.83;;
25419;SDS011;13354;48.174;11.566;2022-12-18T00:15:36;55.20;;;27.67;;
25419;SDS011;13354;48.174;11.566;2022-12-18T00:18:03;51.58;;;27.95;;
25419;SDS011;13354;48.174;11.566;2022-12-18T00:20:28;53.88;;;27.60;;
25419;SDS011;13354;48.174;11.566;2022-12-18T00:22:54;53.58;;;27.67;;
25419;SDS011;13354;48.174;11.566;2022-12-18T00:25:19;59.90;;;28.35;;
25419;SDS011;13354;48.174;11.566;2022-12-18T00:27:45;57.40;;;28.90;;
25419;SDS011;13354;48.174;11.566;2022-12-18T00:30:11;57.45;;;29.08;;
25419;SDS011;13354;48.174;11.566;2022-12-18T00:32:36;51.58;;;27.23;;
25419;SDS011;13354;48.174;11.566;2022-12-18T00:35:02;62.45;;;31.25;;
25419;SDS011;13354;48.174;11.566;2022-12-18T00:37:28;60.22;;;29.92;;
25419;SDS011;13354;48.174;11.566;2022-12-18T00:39:53;55.72;;;29.55;;
25419;SDS011;13354;48.174;11.566;2022-12-18T00:42:18;57.38;;;28.67;;
25419;SDS011;13354;48.174;11.566;2022-12-18T00:45:02;47.13;;;22.38;;
25419;SDS011;13354;48.174;11.566;2022-12-18T00:47:28;59.70;;;27.80;;
25419;SDS011;13354;48.174;11.566;2022-12-18T00:49:53;51.65;;;25.48;;
25419;SDS011;13354;48.174;11.566;2022-12-18T00:52:18;53.42;;;27.05;;
25419;SDS011;13354;48.174;11.566;2022-12-18T00:54:44;53.25;;;26.08;;
25419;SDS011;13354;48.174;11.566;2022-12-18T00:57:09;52.78;;;28.08;;
25419;SDS011;13354;48.174;11.566;2022-12-18T00:59:34;54.60;;;26.77;;
25419;SDS011;13354;48.174;11.566;2022-12-18T01:01:59;51.20;;;25.52;;
25419;SDS011;13354;48.174;11.566;2022-12-18T01:04:25;54.50;;;25.92;;
25419;SDS011;13354;48.174;11.566;2022-12-18T01:06:50;48.03;;;24.85;;
25419;SDS011;13354;48.174;11.566;2022-12-18T01:09:15;51.15;;;25.60;;
25419;SDS011;13354;48.174;11.566;2022-12-18T01:11:40;49.53;;;24.77;;
25419;SDS011;13354;48.174;11.566;2022-12-18T01:14:06;50.45;;;25.15;;
25419;SDS011;13354;48.174;11.566;2022-12-18T01:16:31;54.65;;;26.00;;
25419;SDS011;13354;48.174;11.566;2022-12-18T01:18:57;52.67;;;26.15;;
25419;SDS011;13354;48.174;11.566;2022-12-18T01:21:22;48.40;;;25.00;;
25419;SDS011;13354;48.174;11.566;2022-12-18T01:23:52;52.00;;;26.35;;
25419;SDS011;13354;48.174;11.566;2022-12-18T01:26:18;49.63;;;24.98;;
25419;SDS011;13354;48.174;11.566;2022-12-18T01:28:44;51.13;;;24.77;;
25419;SDS011;13354;48.174;11.566;2022-12-18T01:31:19;52.60;;;25.67;;
25419;SDS011;13354;48.174;11.566;2022-12-18T01:33:48;55.38;;;25.58;;
25419;SDS011;13354;48.174;11.566;2022-12-18T01:36:23;50.53;;;26.38;;
25419;SDS011;13354;48.174;11.566;2022-12-18T01:38:51;52.80;;;26.50;;
25419;SDS011;13354;48.174;11.566;2022-12-18T01:41:17;54.85;;;27.17;;
25419;SDS011;13354;48.174;11.566;2022-12-18T01:43:49;61.65;;;27.40;;
25419;SDS011;13354;48.174;11.566;2022-12-18T01:46:25;55.50;;;28.23;;
25419;SDS011;13354;48.174;11.566;2022-12-18T01:48:59;57.08;;;27.73;;
25419;SDS011;13354;48.174;11.566;2022-12-18T01:51:26;56.35;;;28.00;;
25419;SDS011;13354;48.174;11.566;2022-12-18T01:53:54;60.80;;;29.48;;
25419;SDS011;13354;48.174;11.566;2022-12-18T01:56:20;57.30;;;29.40;;
25419;SDS011;13354;48.174;11.566;2022-12-18T01:58:54;59.10;;;29.42;;
25419;SDS011;13354;48.174;11.566;2022-12-18T02:01:23;63.88;;;30.42;;
25419;SDS011;13354;48.174;11.566;2022-12-18T02:03:50;61.17;;;28.55;;
25419;SDS011;13354;48.174;11.566;2022-12-18T02:06:19;64.43;;;29.50;;
25419;SDS011;13354;48.174;11.566;2022-12-18T02:08:55;59.53;;;30.17;;
25419;SDS011;13354;48.174;11.566;2022-12-18T02:11:32;56.85;;;29.00;;
25419;SDS011;13354;48.174;11.566;2022-12-18T02:16:45;50.92;;;24.85;;
25419;SDS011;13354;48.174;11.566;2022-12-18T02:19:26;47.77;;;23.60;;
25419;SDS011;13354;48.174;11.566;2022-12-18T02:24:31;62.42;;;29.80;;
25419;SDS011;13354;48.174;11.566;2022-12-18T02:27:03;63.88;;;30.60;;
25419;SDS011;13354;48.174;11.566;2022-12-18T02:29:32;63.60;;;29.08;;
25419;SDS011;13354;48.174;11.566;2022-12-18T02:32:03;65.57;;;32.00;;
25419;SDS011;13354;48.174;11.566;2022-12-18T02:34:32;67.30;;;32.35;;
25419;SDS011;13354;48.174;11.566;2022-12-18T02:37:03;64.80;;;31.13;;
25419;SDS011;13354;48.174;11.566;2022-12-18T02:39:32;65.05;;;32.40;;
25419;SDS011;13354;48.174;11.566;2022-12-18T02:41:59;61.60;;;30.17;;
25419;SDS011;13354;48.174;11.566;2022-12-18T02:44:27;64.50;;;31.52;;
25419;SDS011;13354;48.174;11.566;2022-12-18T02:46:53;62.38;;;30.65;;
25419;SDS011;13354;48.174;11.566;2022-12-18T02:49:35;60.88;;;30.35;;
25419;SDS011;13354;48.174;11.566;2022-12-18T03:03:32;59.25;;;29.70;;
25419;SDS011;13354;48.174;11.566;2022-12-18T03:06:08;62.22;;;31.25;;
25419;SDS011;13354;48.174;11.566;2022-12-18T03:08:41;59.20;;;30.52;;
25419;SDS011;13354;48.174;11.566;2022-12-18T03:11:11;64.70;;;30.73;;
25419;SDS011;13354;48.174;11.566;2022-12-18T03:13:45;68.63;;;32.28;;
25419;SDS011;13354;48.174;11.566;2022-12-18T03:16:17;61.65;;;30.85;;
25419;SDS011;13354;48.174;11.566;2022-12-18T03:21:26;63.30;;;32.17;;
25419;SDS011;13354;48.174;11.566;2022-12-18T03:23:56;63.13;;;31.00;;
25419;SDS011;13354;48.174;11.566;2022-12-18T03:26:23;58.58;;;29.77;;
25419;SDS011;13354;48.174;11.566;2022-12-18T03:28:53;59.38;;;30.33;;
25419;SDS011;13354;48.174;11.566;2022-12-18T03:31:24;51.35;;;24.27;;
25419;SDS011;13354;48.174;11.566;2022-12-18T03:33:54;53.88;;;27.95;;
25419;SDS011;13354;48.174;11.566;2022-12-18T03:36:22;63.50;;;30.00;;
25419;SDS011;13354;48.174;11.566;2022-12-18T03:38:48;62.33;;;30.77;;
25419;SDS011;13354;48.174;11.566;2022-12-18T03:49:54;60.47;;;28.20;;
25419;SDS011;13354;48.174;11.566;2022-12-18T03:52:39;57.33;;;29.42;;
25419;SDS011;13354;48.174;11.566;2022-12-18T03:55:09;48.22;;;24.25;;
25419;SDS011;13354;48.174;11.566;2022-12-18T03:57:35;54.13;;;27.70;;
25419;SDS011;13354;48.174;11.566;2022-12-18T04:00:07;58.63;;;28.60;;
25419;SDS011;13354;48.174;11.566;2022-12-18T04:02:35;58.97;;;28.58;;
25419;SDS011;13354;48.174;11.566;2022-12-18T04:05:05;58.13;;;29.52;;
25419;SDS011;13354;48.174;11.566;2022-12-18T04:07:33;52.22;;;26.88;;
25419;SDS011;13354;48.174;11.566;2022-12-18T04:09:59;55.47;;;27.35;;
25419;SDS011;13354;48.174;11.566;2022-12-18T04:12:28;57.47;;;28.25;;
25419;SDS011;13354;48.174;11.566;2022-12-18T04:14:54;61.83;;;28.58;;
25419;SDS011;13354;48.174;11.566;2022-12-18T04:17:20;57.10;;;27.40;;
25419;SDS011;13354;48.174;11.566;2022-12-18T04:19:45;55.95;;;28.55;;
25419;SDS011;13354;48.174;11.566;2022-12-18T04:22:11;56.80;;;28.38;;
25419;SDS011;13354;48.174;11.566;2022-12-18T04:24:36;59.90;;;29.42;;
25419;SDS011;13354;48.174;11.566;2022-12-18T04:27:02;58.55;;;28.02;;
25419;SDS011;13354;48.174;11.566;2022-12-18T04:29:27;52.00;;;26.55;;
25419;SDS011;13354;48.174;11.566;2022-12-18T04:31:53;52.45;;;28.08;;
25419;SDS011;13354;48.174;11.566;2022-12-18T04:34:19;54.17;;;27.70;;
25419;SDS011;13354;48.174;11.566;2022-12-18T04:36:44;55.65;;;27.45;;
25419;SDS011;13354;48.174;11.566;2022-12-18T04:39:10;54.95;;;27.30;;
25419;SDS011;13354;48.174;11.566;2022-12-18T04:41:35;54.90;;;27.33;;
25419;SDS011;13354;48.174;11.566;2022-12-18T04:44:00;52.72;;;25.80;;
25419;SDS011;13354;48.174;11.566;2022-12-18T04:46:26;51.75;;;26.73;;
25419;SDS011;13354;48.174;11.566;2022-12-18T04:48:51;54.03;;;27.80;;
25419;SDS011;13354;48.174;11.566;2022-12-18T04:51:17;53.13;;;26.30;;
25419;SDS011;13354;48.174;11.566;2022-12-18T04:53:42;54.38;;;27.45;;
25419;SDS011;13354;48.174;11.566;2022-12-18T04:56:09;52.05;;;26.80;;
25419;SDS011;13354;48.174;11.566;2022-12-18T04:58:37;53.05;;;26.55;;
25419;SDS011;13354;48.174;11.566;2022-12-18T05:01:04;55.05;;;27.27;;
25419;SDS011;13354;48.174;11.566;2022-12-18T05:03:30;50.72;;;25.45;;
25419;SDS011;13354;48.174;11.566;2022-12-18T05:05:56;55.13;;;26.80;;
25419;SDS011;13354;48.174;11.566;2022-12-18T05:08:21;50.85;;;26.20;;
25419;SDS011;13354;48.174;11.566;2022-12-18T05:10:47;53.45;;;27.02;;
25419;SDS011;13354;48.174;11.566;2022-12-18T05:13:12;49.97;;;25.33;;
25419;SDS011;13354;48.174;11.566;2022-12-18T05:15:37;50.60;;;25.67;;
25419;SDS011;13354;48.174;11.566;2022-12-18T05:18:03;54.08;;;25.77;;
25419;SDS011;13354;48.174;11.566;2022-12-18T05:20:29;53.88;;;25.40;;
25419;SDS011;13354;48.174;11.566;2022-12-18T05:22:55;52.53;;;26.08;;
25419;SDS011;13354;48.174;11.566;2022-12-18T05:25:21;50.15;;;26.67;;
25419;SDS011;13354;48.174;11.566;2022-12-18T05:27:47;54.78;;;25.90;;
25419;SDS011;13354;48.174;11.566;2022-12-18T05:30:13;51.70;;;25.88;;
25419;SDS011;13354;48.174;11.566;2022-12-18T05:32:39;51.30;;;26.38;;
25419;SDS011;13354;48.174;11.566;2022-12-18T05:35:06;50.72;;;26.33;;
25419;SDS011;13354;48.174;11.566;2022-12-18T05:37:32;48.70;;;24.90;;
25419;SDS011;13354;48.174;11.566;2022-12-18T05:39:58;49.60;;;24.55;;
25419;SDS011;13354;48.174;11.566;2022-12-18T05:42:23;51.00;;;26.25;;
25419;SDS011;13354;48.174;11.566;2022-12-18T05:44:49;51.17;;;25.60;;
25419;SDS011;13354;48.174;11.566;2022-12-18T05:47:14;47.20;;;23.67;;
25419;SDS011;13354;48.174;11.566;2022-12-18T05:49:39;50.10;;;26.27;;
25419;SDS011;13354;48.174;11.566;2022-12-18T05:52:05;53.22;;;26.25;;
25419;SDS011;13354;48.174;11.566;2022-12-18T05:54:30;47.08;;;24.10;;
25419;SDS011;13354;48.174;11.566;2022-12-18T05:56:56;54.90;;;25.65;;
25419;SDS011;13354;48.174;11.566;2022-12-18T05:59:21;47.15;;;23.92;;
25419;SDS011;13354;48.174;11.566;2022-12-18T06:01:46;49.92;;;24.38;;
25419;SDS011;13354;48.174;11.566;2022-12-18T06:04:12;50.97;;;25.83;;
25419;SDS011;13354;48.174;11.566;2022-12-18T06:06:37;50.78;;;25.00;;
25419;SDS011;13354;48.174;11.566;2022-12-18T06:09:03;47.15;;;24.42;;
25419;SDS011;13354;48.174;11.566;2022-12-18T06:11:33;47.67;;;24.27;;
25419;SDS011;13354;48.174;11.566;2022-12-18T06:13:59;46.50;;;24.17;;
25419;SDS011;13354;48.174;11.566;2022-12-18T06:16:25;46.50;;;23.83;;
25419;SDS011;13354;48.174;11.566;2022-12-18T06:18:51;46.72;;;23.85;;
25419;SDS011;13354;48.174;11.566;2022-12-18T06:21:16;45.35;;;23.88;;
25419;SDS011;13354;48.174;11.566;2022-12-18T06:23:41;43.80;;;23.08;;
25419;SDS011;13354;48.174;11.566;2022-12-18T06:26:08;49.72;;;24.10;;
25419;SDS011;13354;48.174;11.566;2022-12-18T06:28:35;50.03;;;25.55;;
25419;SDS011;13354;48.174;11.566;2022-12-18T06:31:00;49.28;;;25.48;;
25419;SDS011;13354;48.174;11.566;2022-12-18T06:33:28;49.42;;;24.88;;
25419;SDS011;13354;48.174;11.566;2022-12-18T06:35:54;48.80;;;23.65;;
25419;SDS011;13354;48.174;11.566;2022-12-18T06:38:24;47.42;;;24.35;;
25419;SDS011;13354;48.174;11.566;2022-12-18T06:40:49;46.92;;;23.27;;
25419;SDS011;13354;48.174;11.566;2022-12-18T06:43:14;45.20;;;23.75;;
25419;SDS011;13354;48.174;11.566;2022-12-18T06:45:40;46.97;;;24.05;;
25419;SDS011;13354;48.174;11.566;2022-12-18T06:48:05;44.42;;;22.52;;
25419;SDS011;13354;48.174;11.566;2022-12-18T06:50:30;44.20;;;22.52;;
25419;SDS011;13354;48.174;11.566;2022-12-18T06:52:56;49.45;;;22.98;;
25419;SDS011;13354;48.174;11.566;2022-12-18T06:55:21;48.08;;;23.25;;
25419;SDS011;13354;48.174;11.566;2022-12-18T06:57:47;42.08;;;21.88;;
25419;SDS011;13354;48.174;11.566;2022-12-18T07:00:12;43.20;;;22.30;;
25419;SDS011;13354;48.174;11.566;2022-12-18T07:02:38;46.55;;;22.52;;
25419;SDS011;13354;48.174;11.566;2022-12-18T07:05:04;44.75;;;22.35;;
25419;SDS011;13354;48.174;11.566;2022-12-18T07:07:29;42.05;;;22.05;;
25419;SDS011;13354;48.174;11.566;2022-12-18T07:09:55;43.70;;;22.00;;
25419;SDS011;13354;48.174;11.566;2022-12-18T07:12:20;37.88;;;19.67;;
25419;SDS011;13354;48.174;11.566;2022-12-18T07:14:45;46.47;;;23.00;;
25419;SDS011;13354;48.174;11.566;2022-12-18T07:17:10;44.72;;;22.73;;
25419;SDS011;13354;48.174;11.566;2022-12-18T07:19:36;45.03;;;23.13;;
25419;SDS011;13354;48.174;11.566;2022-12-18T07:22:01;45.45;;;23.80;;
25419;SDS011;13354;48.174;11.566;2022-12-18T07:24:26;40.47;;;21.38;;
25419;SDS011;13354;48.174;11.566;2022-12-18T07:26:51;42.97;;;22.77;;
25419;SDS011;13354;48.174;11.566;2022-12-18T07:29:17;45.60;;;23.85;;
25419;SDS011;13354;48.174;11.566;2022-12-18T07:31:42;46.22;;;23.17;;
25419;SDS011;13354;48.174;11.566;2022-12-18T07:34:14;45.70;;;22.92;;
25419;SDS011;13354;48.174;11.566;2022-12-18T07:36:40;38.03;;;21.75;;
25419;SDS011;13354;48.174;11.566;2022-12-18T07:39:05;43.22;;;20.98;;
25419;SDS011;13354;48.174;11.566;2022-12-18T07:41:31;39.03;;;21.25;;
25419;SDS011;13354;48.174;11.566;2022-12-18T07:43:56;43.25;;;21.98;;
25419;SDS011;13354;48.174;11.566;2022-12-18T07:46:21;43.90;;;22.38;;
25419;SDS011;13354;48.174;11.566;2022-12-18T07:48:47;44.88;;;22.80;;
25419;SDS011;13354;48.174;11.566;2022-12-18T07:51:13;47.90;;;24.35;;
25419;SDS011;13354;48.174;11.566;2022-12-18T07:53:39;41.60;;;20.83;;
25419;SDS011;13354;48.174;11.566;2022-12-18T07:56:06;45.15;;;23.65;;
25419;SDS011;13354;48.174;11.566;2022-12-18T07:58:35;46.25;;;22.65;;
25419;SDS011;13354;48.174;11.566;2022-12-18T08:01:05;42.63;;;23.15;;
25419;SDS011;13354;48.174;11.566;2022-12-18T08:03:35;33.92;;;18.38;;
25419;SDS011;13354;48.174;11.566;2022-12-18T08:06:01;43.58;;;22.70;;
25419;SDS011;13354;48.174;11.566;2022-12-18T08:08:28;42.63;;;22.33;;
25419;SDS011;13354;48.174;11.566;2022-12-18T08:10:53;44.25;;;21.98;;
25419;SDS011;13354;48.174;11.566;2022-12-18T08:13:19;44.13;;;22.83;;
25419;SDS011;13354;48.174;11.566;2022-12-18T08:15:44;45.17;;;23.20;;
25419;SDS011;13354;48.174;11.566;2022-12-18T08:18:09;44.30;;;24.80;;
25419;SDS011;13354;48.174;11.566;2022-12-18T08:20:34;43.42;;;22.80;;
25419;SDS011;13354;48.174;11.566;2022-12-18T08:23:00;46.25;;;22.88;;
25419;SDS011;13354;48.174;11.566;2022-12-18T08:25:25;44.40;;;22.35;;
25419;SDS011;13354;48.174;11.566;2022-12-18T08:27:50;46.17;;;23.40;;
25419;SDS011;13354;48.174;11.566;2022-12-18T08:30:16;49.92;;;24.02;;
25419;SDS011;13354;48.174;11.566;2022-12-18T08:32:41;41.83;;;21.42;;
25419;SDS011;13354;48.174;11.566;2022-12-18T08:35:06;46.90;;;25.15;;
25419;SDS011;13354;48.174;11.566;2022-12-18T08:37:33;44.92;;;22.65;;
25419;SDS011;13354;48.174;11.566;2022-12-18T08:39:58;48.53;;;23.05;;
25419;SDS011;13354;48.174;11.566;2022-12-18T08:42:23;44.55;;;23.63;;
25419;SDS011;13354;48.174;11.566;2022-12-18T08:45:08;43.00;;;23.65;;
25419;SDS011;13354;48.174;11.566;2022-12-18T08:47:34;43.97;;;21.83;;
25419;SDS011;13354;48.174;11.566;2022-12-18T08:49:59;47.35;;;24.50;;
25419;SDS011;13354;48.174;11.566;2022-12-18T08:52:24;44.10;;;23.17;;
25419;SDS011;13354;48.174;11.566;2022-12-18T08:54:50;44.45;;;23.23;;
25419;SDS011;13354;48.174;11.566;2022-12-18T08:57:15;43.92;;;22.50;;
25419;SDS011;13354;48.174;11.566;2022-12-18T08:59:41;41.95;;;21.08;;
25419;SDS011;13354;48.174;11.566;2022-12-18T09:02:07;43.03;;;22.08;;
25419;SDS011;13354;48.174;11.566;2022-12-18T09:04:34;43.65;;;22.50;;
25419;SDS011;13354;48.174;11.566;2022-12-18T09:07:00;42.10;;;22.88;;
25419;SDS011;13354;48.174;11.566;2022-12-18T09:09:25;43.83;;;23.20;;
25419;SDS011;13354;48.174;11.566;2022-12-18T09:11:50;44.05;;;23.00;;
25419;SDS011;13354;48.174;11.566;2022-12-18T09:14:15;42.90;;;23.05;;
25419;SDS011;13354;48.174;11.566;2022-12-18T09:16:41;45.05;;;22.60;;
25419;SDS011;13354;48.174;11.566;2022-12-18T09:19:06;44.60;;;23.25;;
25419;SDS011;13354;48.174;11.566;2022-12-18T09:21:33;39.85;;;21.38;;
25419;SDS011;13354;48.174;11.566;2022-12-18T09:23:59;47.17;;;23.33;;
25419;SDS011;13354;48.174;11.566;2022-12-18T09:26:25;44.80;;;22.67;;
25419;SDS011;13354;48.174;11.566;2022-12-18T09:28:51;45.45;;;21.75;;
25419;SDS011;13354;48.174;11.566;2022-12-18T09:31:18;43.95;;;23.15;;
25419;SDS011;13354;48.174;11.566;2022-12-18T09:33:45;39.15;;;21.13;;
25419;SDS011;13354;48.174;11.566;2022-12-18T09:36:13;47.17;;;23.77;;
25419;SDS011;13354;48.174;11.566;2022-12-18T09:38:40;40.25;;;20.83;;
25419;SDS011;13354;48.174;11.566;2022-12-18T09:41:14;49.58;;;23.48;;
25419;SDS011;13354;48.174;11.566;2022-12-18T09:43:48;40.05;;;19.42;;
25419;SDS011;13354;48.174;11.566;2022-12-18T09:46:19;41.80;;;21.08;;
25419;SDS011;13354;48.174;11.566;2022-12-18T09:48:51;41.40;;;21.60;;
25419;SDS011;13354;48.174;11.566;2022-12-18T09:51:27;38.85;;;20.40;;
25419;SDS011;13354;48.174;11.566;2022-12-18T09:53:58;42.22;;;21.23;;
25419;SDS011;13354;48.174;11.566;2022-12-18T09:56:28;37.55;;;20.52;;
25419;SDS011;13354;48.174;11.566;2022-12-18T09:59:00;42.17;;;22.17;;
25419;SDS011;13354;48.174;11.566;2022-12-18T10:01:27;42.30;;;21.00;;
25419;SDS011;13354;48.174;11.566;2022-12-18T10:03:54;42.85;;;21.70;;
25419;SDS011;13354;48.174;11.566;2022-12-18T10:17:14;40.20;;;20.92;;
25419;SDS011;13354;48.174;11.566;2022-12-18T10:19:53;38.15;;;20.70;;
25419;SDS011;13354;48.174;11.566;2022-12-18T10:27:41;40.42;;;19.60;;
25419;SDS011;13354;48.174;11.566;2022-12-18T10:30:17;42.55;;;22.63;;
25419;SDS011;13354;48.174;11.566;2022-12-18T10:32:44;38.67;;;21.08;;
25419;SDS011;13354;48.174;11.566;2022-12-18T10:35:16;49.45;;;25.08;;
25419;SDS011;13354;48.174;11.566;2022-12-18T10:38:01;45.90;;;23.23;;
25419;SDS011;13354;48.174;11.566;2022-12-18T10:40:31;42.90;;;22.20;;
25419;SDS011;13354;48.174;11.566;2022-12-18T10:43:31;40.88;;;21.60;;
25419;SDS011;13354;48.174;11.566;2022-12-18T10:51:05;39.53;;;21.00;;
25419;SDS011;13354;48.174;11.566;2022-12-18T10:53:33;42.22;;;23.20;;
25419;SDS011;13354;48.174;11.566;2022-12-18T10:56:00;44.28;;;22.33;;
25419;SDS011;13354;48.174;11.566;2022-12-18T10:58:29;39.05;;;21.42;;
25419;SDS011;13354;48.174;11.566;2022-12-18T11:03:35;43.88;;;20.60;;
25419;SDS011;13354;48.174;11.566;2022-12-18T11:06:20;42.80;;;21.88;;
25419;SDS011;13354;48.174;11.566;2022-12-18T11:09:05;38.67;;;21.13;;
25419;SDS011;13354;48.174;11.566;2022-12-18T11:11:31;41.28;;;21.33;;
25419;SDS011;13354;48.174;11.566;2022-12-18T11:14:12;41.60;;;22.67;;
25419;SDS011;13354;48.174;11.566;2022-12-18T11:16:44;42.47;;;22.27;;
25419;SDS011;13354;48.174;11.566;2022-12-18T11:19:26;43.40;;;20.63;;
25419;SDS011;13354;48.174;11.566;2022-12-18T11:25:02;36.85;;;20.45;;
25419;SDS011;13354;48.174;11.566;2022-12-18T11:27:30;39.47;;;21.27;;
25419;SDS011;13354;48.174;11.566;2022-12-18T11:32:50;39.72;;;19.98;;
25419;SDS011;13354;48.174;11.566;2022-12-18T11:35:23;36.10;;;20.63;;
25419;SDS011;13354;48.174;11.566;2022-12-18T11:37:54;37.22;;;20.45;;
25419;SDS011;13354;48.174;11.566;2022-12-18T11:40:26;32.77;;;16.93;;
25419;SDS011;13354;48.174;11.566;2022-12-18T11:42:59;41.28;;;20.27;;
25419;SDS011;13354;48.174;11.566;2022-12-18T11:45:34;33.85;;;18.42;;
25419;SDS011;13354;48.174;11.566;2022-12-18T11:48:04;35.80;;;19.15;;
25419;SDS011;13354;48.174;11.566;2022-12-18T11:50:53;36.70;;;19.15;;
25419;SDS011;13354;48.174;11.566;2022-12-18T11:53:21;35.15;;;19.30;;
25419;SDS011;13354;48.174;11.566;2022-12-18T12:01:27;28.98;;;16.25;;
25419;SDS011;13354;48.174;11.566;2022-12-18T12:06:58;35.35;;;18.98;;
25419;SDS011;13354;48.174;11.566;2022-12-18T12:09:46;27.42;;;16.05;;
25419;SDS011;13354;48.174;11.566;2022-12-18T12:26:29;33.47;;;18.10;;
25419;SDS011;13354;48.174;11.566;2022-12-18T12:31:59;33.58;;;17.55;;
25419;SDS011;13354;48.174;11.566;2022-12-18T12:39:37;32.07;;;17.93;;
25419;SDS011;13354;48.174;11.566;2022-12-18T12:42:08;34.17;;;18.45;;
25419;SDS011;13354;48.174;11.566;2022-12-18T12:47:29;33.67;;;17.40;;
25419;SDS011;13354;48.174;11.566;2022-12-18T12:50:01;30.80;;;16.55;;
25419;SDS011;13354;48.174;11.566;2022-12-18T12:52:33;31.77;;;17.92;;
25419;SDS011;13354;48.174;11.566;2022-12-18T12:55:02;38.83;;;19.30;;
25419;SDS011;13354;48.174;11.566;2022-12-18T12:57:31;31.27;;;17.10;;
25419;SDS011;13354;48.174;11.566;2022-12-18T13:08:55;32.75;;;17.55;;
25419;SDS011;13354;48.174;11.566;2022-12-18T13:10:57;32.38;;;18.20;;
25419;SDS011;13354;48.174;11.566;2022-12-18T13:13:50;32.42;;;17.88;;
25419;SDS011;13354;48.174;11.566;2022-12-18T13:16:19;31.33;;;18.15;;
25419;SDS011;13354;48.174;11.566;2022-12-18T13:18:50;34.22;;;18.23;;
25419;SDS011;13354;48.174;11.566;2022-12-18T13:21:28;33.28;;;18.52;;
25419;SDS011;13354;48.174;11.566;2022-12-18T13:24:14;35.90;;;18.98;;
25419;SDS011;13354;48.174;11.566;2022-12-18T13:26:47;34.38;;;17.77;;
25419;SDS011;13354;48.174;11.566;2022-12-18T13:29:13;35.33;;;19.42;;
25419;SDS011;13354;48.174;11.566;2022-12-18T13:32:22;32.58;;;18.23;;
25419;SDS011;13354;48.174;11.566;2022-12-18T13:35:09;30.15;;;15.50;;
25419;SDS011;13354;48.174;11.566;2022-12-18T13:37:53;32.85;;;18.75;;
25419;SDS011;13354;48.174;11.566;2022-12-18T13:43:14;29.60;;;15.40;;
25419;SDS011;13354;48.174;11.566;2022-12-18T13:48:41;36.47;;;19.05;;
25419;SDS011;13354;48.174;11.566;2022-12-18T13:51:16;36.03;;;19.63;;
25419;SDS011;13354;48.174;11.566;2022-12-18T13:53:46;38.85;;;18.98;;
25419;SDS011;13354;48.174;11.566;2022-12-18T13:56:20;37.05;;;19.23;;
25419;SDS011;13354;48.174;11.566;2022-12-18T14:01:41;35.30;;;19.50;;
25419;SDS011;13354;48.174;11.566;2022-12-18T14:04:12;36.83;;;18.75;;
25419;SDS011;13354;48.174;11.566;2022-12-18T14:06:43;38.00;;;19.40;;
25419;SDS011;13354;48.174;11.566;2022-12-18T14:09:11;37.13;;;19.10;;
25419;SDS011;13354;48.174;11.566;2022-12-18T14:11:39;35.45;;;19.63;;
25419;SDS011;13354;48.174;11.566;2022-12-18T14:14:04;39.47;;;19.48;;
25419;SDS011;13354;48.174;11.566;2022-12-18T14:16:32;36.50;;;19.33;;
25419;SDS011;13354;48.174;11.566;2022-12-18T14:18:59;39.17;;;19.48;;
25419;SDS011;13354;48.174;11.566;2022-12-18T14:21:30;38.05;;;20.10;;
25419;SDS011;13354;48.174;11.566;2022-12-18T14:24:05;35.92;;;19.83;;
25419;SDS011;13354;48.174;11.566;2022-12-18T14:26:38;36.22;;;19.73;;
25419;SDS011;13354;48.174;11.566;2022-12-18T14:32:03;32.75;;;14.45;;
25419;SDS011;13354;48.174;11.566;2022-12-18T14:34:48;38.17;;;20.13;;
25419;SDS011;13354;48.174;11.566;2022-12-18T14:37:22;36.25;;;19.25;;
25419;SDS011;13354;48.174;11.566;2022-12-18T14:39:56;35.70;;;19.48;;
25419;SDS011;13354;48.174;11.566;2022-12-18T14:42:24;34.47;;;19.00;;
25419;SDS011;13354;48.174;11.566;2022-12-18T14:45:17;35.53;;;19.27;;
25419;SDS011;13354;48.174;11.566;2022-12-18T14:47:58;37.03;;;18.75;;
25419;SDS011;13354;48.174;11.566;2022-12-18T14:50:24;33.10;;;18.77;;
25419;SDS011;13354;48.174;11.566;2022-12-18T14:52:50;37.75;;;20.33;;
25419;SDS011;13354;48.174;11.566;2022-12-18T14:55:16;37.47;;;19.85;;
25419;SDS011;13354;48.174;11.566;2022-12-18T14:57:42;37.25;;;19.52;;
25419;SDS011;13354;48.174;11.566;2022-12-18T15:00:15;38.75;;;19.73;;
25419;SDS011;13354;48.174;11.566;2022-12-18T15:02:43;37.22;;;20.80;;
25419;SDS011;13354;48.174;11.566;2022-12-18T15:07:43;37.45;;;20.05;;
25419;SDS011;13354;48.174;11.566;2022-12-18T15:12:43;43.15;;;21.58;;
25419;SDS011;13354;48.174;11.566;2022-12-18T15:17:59;38.45;;;20.52;;
25419;SDS011;13354;48.174;11.566;2022-12-18T15:20:51;36.20;;;19.67;;
25419;SDS011;13354;48.174;11.566;2022-12-18T15:23:22;34.78;;;18.77;;
25419;SDS011;13354;48.174;11.566;2022-12-18T15:25:54;36.67;;;19.63;;
25419;SDS011;13354;48.174;11.566;2022-12-18T15:28:34;38.08;;;19.35;;
25419;SDS011;13354;48.174;11.566;2022-12-18T15:33:45;33.85;;;18.95;;
25419;SDS011;13354;48.174;11.566;2022-12-18T15:36:17;29.80;;;15.00;;
25419;SDS011;13354;48.174;11.566;2022-12-18T15:38:46;41.40;;;20.17;;
25419;SDS011;13354;48.174;11.566;2022-12-18T15:41:19;38.10;;;19.80;;
25419;SDS011;13354;48.174;11.566;2022-12-18T15:43:47;40.40;;;20.33;;
25419;SDS011;13354;48.174;11.566;2022-12-18T15:46:14;36.80;;;19.35;;
25419;SDS011;13354;48.174;11.566;2022-12-18T15:48:45;38.20;;;19.80;;
25419;SDS011;13354;48.174;11.566;2022-12-18T15:51:13;37.45;;;19.35;;
25419;SDS011;13354;48.174;11.566;2022-12-18T15:53:41;37.67;;;20.02;;
25419;SDS011;13354;48.174;11.566;2022-12-18T15:56:13;39.08;;;20.20;;
25419;SDS011;13354;48.174;11.566;2022-12-18T15:58:58;39.17;;;20.25;;
25419;SDS011;13354;48.174;11.566;2022-12-18T16:01:26;37.65;;;20.08;;
25419;SDS011;13354;48.174;11.566;2022-12-18T16:03:53;37.47;;;19.92;;
25419;SDS011;13354;48.174;11.566;2022-12-18T16:06:19;38.97;;;21.77;;
25419;SDS011;13354;48.174;11.566;2022-12-18T16:08:44;38.53;;;20.23;;
25419;SDS011;13354;48.174;11.566;2022-12-18T16:11:28;40.55;;;20.98;;
25419;SDS011;13354;48.174;11.566;2022-12-18T16:14:21;40.63;;;21.40;;
25419;SDS011;13354;48.174;11.566;2022-12-18T16:16:52;37.33;;;20.25;;
25419;SDS011;13354;48.174;11.566;2022-12-18T16:19:20;40.28;;;21.50;;
25419;SDS011;13354;48.174;11.566;2022-12-18T16:21:49;37.58;;;20.27;;